sensor_id;sensor_type;location;lat;lon;timestamp;temperature;humidity
3380;DHT22;1703;51.964;7.642;2022-10-03T00:05:26;12.30;99.90
3380;DHT22;1703;51.964;7.642;2022-10-03T00:08:12;12.30;99.90
3380;DHT22;1703;51.964;7.642;2022-10-03T00:10:54;12.30;99.90
3380;DHT22;1703;51.964;7.642;2022-10-03T00:13:27;12.30;99.90
3380;DHT22;1703;51.964;7.642;2022-10-03T00:16:04;12.30;99.90
3380;DHT22;1703;51.964;7.642;2022-10-03T00:18:44;12.30;99.90
3380;DHT22;1703;51.964;7.642;2022-10-03T00:21:20;12.20;99.90
3380;DHT22;1703;51.964;7.642;2022-10-03T00:24:00;12.20;99.90
3380;DHT22;1703;51.964;7.642;2022-10-03T00:26:39;12.20;99.90
3380;DHT22;1703;51.964;7.642;2022-10-03T00:29:23;12.20;99.90
3380;DHT22;1703;51.964;7.642;2022-10-03T00:31:58;12.10;99.90
3380;DHT22;1703;51.964;7.642;2022-10-03T00:34:39;12.10;99.90
3380;DHT22;1703;51.964;7.642;2022-10-03T00:37:19;12.10;99.90
3380;DHT22;1703;51.964;7.642;2022-10-03T00:40:09;12.10;99.90
3380;DHT22;1703;51.964;7.642;2022-10-03T00:43:28;12.10;99.90
3380;DHT22;1703;51.964;7.642;2022-10-03T00:46:20;12.10;99.90
3380;DHT22;1703;51.964;7.642;2022-10-03T00:52:10;12.00;99.90
3380;DHT22;1703;51.964;7.642;2022-10-03T00:54:53;12.00;99.90
3380;DHT22;1703;51.964;7.642;2022-10-03T00:57:44;12.00;99.90
3380;DHT22;1703;51.964;7.642;2022-10-03T01:00:18;12.00;99.90
3380;DHT22;1703;51.964;7.642;2022-10-03T01:02:53;12.00;99.90
3380;DHT22;1703;51.964;7.642;2022-10-03T01:05:35;12.00;99.90
3380;DHT22;1703;51.964;7.642;2022-10-03T01:08:29;12.00;99.90
3380;DHT22;1703;51.964;7.642;2022-10-03T01:11:11;12.00;99.90
3380;DHT22;1703;51.964;7.642;2022-10-03T01:13:50;12.00;99.90
3380;DHT22;1703;51.964;7.642;2022-10-03T01:16:32;11.90;99.90
3380;DHT22;1703;51.964;7.642;2022-10-03T01:19:09;11.90;99.90
3380;DHT22;1703;51.964;7.642;2022-10-03T01:21:45;11.90;99.90
3380;DHT22;1703;51.964;7.642;2022-10-03T01:27:14;11.90;99.90
3380;DHT22;1703;51.964;7.642;2022-10-03T01:29:49;11.90;99.90
3380;DHT22;1703;51.964;7.642;2022-10-03T01:32:41;11.90;99.90
3380;DHT22;1703;51.964;7.642;2022-10-03T01:35:21;11.80;99.90
3380;DHT22;1703;51.964;7.642;2022-10-03T01:37:55;11.80;99.90
3380;DHT22;1703;51.964;7.642;2022-10-03T01:40:27;11.90;99.90
3380;DHT22;1703;51.964;7.642;2022-10-03T01:43:09;11.80;99.90
3380;DHT22;1703;51.964;7.642;2022-10-03T01:45:47;11.80;99.90
3380;DHT22;1703;51.964;7.642;2022-10-03T01:48:22;11.70;99.90
3380;DHT22;1703;51.964;7.642;2022-10-03T01:51:00;11.80;99.90
3380;DHT22;1703;51.964;7.642;2022-10-03T01:53:34;11.80;99.90
3380;DHT22;1703;51.964;7.642;2022-10-03T01:56:09;11.80;99.90
3380;DHT22;1703;51.964;7.642;2022-10-03T01:58:45;11.80;99.90
3380;DHT22;1703;51.964;7.642;2022-10-03T02:01:21;11.80;99.90
3380;DHT22;1703;51.964;7.642;2022-10-03T02:03:54;11.90;99.90
3380;DHT22;1703;51.964;7.642;2022-10-03T02:06:27;11.90;99.90
3380;DHT22;1703;51.964;7.642;2022-10-03T02:09:04;11.90;99.90
3380;DHT22;1703;51.964;7.642;2022-10-03T02:14:14;11.90;99.90
3380;DHT22;1703;51.964;7.642;2022-10-03T02:16:44;11.80;99.90
3380;DHT22;1703;51.964;7.642;2022-10-03T02:19:21;11.80;99.90
3380;DHT22;1703;51.964;7.642;2022-10-03T02:21:52;11.80;99.90
3380;DHT22;1703;51.964;7.642;2022-10-03T02:24:32;11.80;99.90
3380;DHT22;1703;51.964;7.642;2022-10-03T02:27:25;11.80;99.90
3380;DHT22;1703;51.964;7.642;2022-10-03T02:30:11;11.80;99.90
3380;DHT22;1703;51.964;7.642;2022-10-03T02:42:03;11.70;99.90
3380;DHT22;1703;51.964;7.642;2022-10-03T02:51:37;11.70;99.90
3380;DHT22;1703;51.964;7.642;2022-10-03T02:54:33;11.70;99.90
3380;DHT22;1703;51.964;7.642;2022-10-03T02:57:31;11.70;99.90
3380;DHT22;1703;51.964;7.642;2022-10-03T03:00:13;11.60;99.90
3380;DHT22;1703;51.964;7.642;2022-10-03T03:03:13;11.60;99.90
3380;DHT22;1703;51.964;7.642;2022-10-03T03:12:17;11.60;99.90
3380;DHT22;1703;51.964;7.642;2022-10-03T03:17:54;11.50;99.90
3380;DHT22;1703;51.964;7.642;2022-10-03T03:20:42;11.50;99.90
3380;DHT22;1703;51.964;7.642;2022-10-03T03:23:37;11.50;99.90
3380;DHT22;1703;51.964;7.642;2022-10-03T03:26:21;11.50;99.90
3380;DHT22;1703;51.964;7.642;2022-10-03T03:29:01;11.60;99.90
3380;DHT22;1703;51.964;7.642;2022-10-03T03:31:36;11.50;99.90
3380;DHT22;1703;51.964;7.642;2022-10-03T03:34:11;11.50;99.90
3380;DHT22;1703;51.964;7.642;2022-10-03T03:36:44;11.50;99.90
3380;DHT22;1703;51.964;7.642;2022-10-03T03:39:23;11.50;99.90
3380;DHT22;1703;51.964;7.642;2022-10-03T03:42:04;11.50;99.90
3380;DHT22;1703;51.964;7.642;2022-10-03T03:44:50;11.50;99.90
3380;DHT22;1703;51.964;7.642;2022-10-03T03:47:44;11.50;99.90
3380;DHT22;1703;51.964;7.642;2022-10-03T03:50:31;11.40;99.90
3380;DHT22;1703;51.964;7.642;2022-10-03T03:53:23;11.40;99.90
3380;DHT22;1703;51.964;7.642;2022-10-03T03:56:06;11.30;99.90
3380;DHT22;1703;51.964;7.642;2022-10-03T03:58:38;11.30;99.90
3380;DHT22;1703;51.964;7.642;2022-10-03T04:01:27;11.30;99.90
3380;DHT22;1703;51.964;7.642;2022-10-03T04:04:05;11.20;99.90
3380;DHT22;1703;51.964;7.642;2022-10-03T04:06:46;11.20;99.90
3380;DHT22;1703;51.964;7.642;2022-10-03T04:12:25;11.20;99.90
3380;DHT22;1703;51.964;7.642;2022-10-03T04:18:05;11.20;99.90
3380;DHT22;1703;51.964;7.642;2022-10-03T04:21:12;11.20;99.90
3380;DHT22;1703;51.964;7.642;2022-10-03T04:24:02;11.20;99.90
3380;DHT22;1703;51.964;7.642;2022-10-03T04:26:43;11.20;99.90
3380;DHT22;1703;51.964;7.642;2022-10-03T04:29:42;11.20;99.90
3380;DHT22;1703;51.964;7.642;2022-10-03T04:32:32;11.20;99.90
3380;DHT22;1703;51.964;7.642;2022-10-03T04:35:17;11.20;99.90
3380;DHT22;1703;51.964;7.642;2022-10-03T04:37:48;11.10;99.90
3380;DHT22;1703;51.964;7.642;2022-10-03T04:40:25;11.10;99.90
3380;DHT22;1703;51.964;7.642;2022-10-03T04:43:06;11.10;99.90
3380;DHT22;1703;51.964;7.642;2022-10-03T04:45:47;11.10;99.90
3380;DHT22;1703;51.964;7.642;2022-10-03T04:48:26;11.10;99.90
3380;DHT22;1703;51.964;7.642;2022-10-03T04:51:02;11.00;99.90
3380;DHT22;1703;51.964;7.642;2022-10-03T04:53:40;11.00;99.90
3380;DHT22;1703;51.964;7.642;2022-10-03T04:56:19;11.00;99.90
3380;DHT22;1703;51.964;7.642;2022-10-03T04:58:52;11.00;99.90
3380;DHT22;1703;51.964;7.642;2022-10-03T05:01:24;11.00;99.90
3380;DHT22;1703;51.964;7.642;2022-10-03T05:04:01;11.00;99.90
3380;DHT22;1703;51.964;7.642;2022-10-03T05:06:44;11.00;99.90
3380;DHT22;1703;51.964;7.642;2022-10-03T05:09:22;11.00;99.90
3380;DHT22;1703;51.964;7.642;2022-10-03T05:12:00;11.00;99.90
3380;DHT22;1703;51.964;7.642;2022-10-03T05:14:43;11.00;99.90
3380;DHT22;1703;51.964;7.642;2022-10-03T05:17:17;10.90;99.90
3380;DHT22;1703;51.964;7.642;2022-10-03T05:22:55;10.90;99.90
3380;DHT22;1703;51.964;7.642;2022-10-03T05:25:32;10.90;99.90
3380;DHT22;1703;51.964;7.642;2022-10-03T05:28:12;10.90;99.90
3380;DHT22;1703;51.964;7.642;2022-10-03T05:30:43;10.90;99.90
3380;DHT22;1703;51.964;7.642;2022-10-03T05:33:24;10.90;99.90
3380;DHT22;1703;51.964;7.642;2022-10-03T05:36:05;10.90;99.90
3380;DHT22;1703;51.964;7.642;2022-10-03T05:41:41;10.90;99.90
3380;DHT22;1703;51.964;7.642;2022-10-03T05:44:18;10.90;99.90
3380;DHT22;1703;51.964;7.642;2022-10-03T05:46:57;10.90;99.90
3380;DHT22;1703;51.964;7.642;2022-10-03T05:49:53;10.80;99.90
3380;DHT22;1703;51.964;7.642;2022-10-03T05:52:35;10.90;99.90
3380;DHT22;1703;51.964;7.642;2022-10-03T05:55:35;10.80;99.90
3380;DHT22;1703;51.964;7.642;2022-10-03T05:58:35;10.80;99.90
3380;DHT22;1703;51.964;7.642;2022-10-03T06:01:37;10.80;99.90
3380;DHT22;1703;51.964;7.642;2022-10-03T06:04:23;10.80;99.90
3380;DHT22;1703;51.964;7.642;2022-10-03T06:07:04;10.90;99.90
3380;DHT22;1703;51.964;7.642;2022-10-03T06:12:47;10.80;99.90
3380;DHT22;1703;51.964;7.642;2022-10-03T06:15:34;10.80;99.90
3380;DHT22;1703;51.964;7.642;2022-10-03T06:18:22;10.80;99.90
3380;DHT22;1703;51.964;7.642;2022-10-03T06:24:41;10.90;99.90
3380;DHT22;1703;51.964;7.642;2022-10-03T06:30:22;10.80;99.90
3380;DHT22;1703;51.964;7.642;2022-10-03T06:36:49;10.80;99.90
3380;DHT22;1703;51.964;7.642;2022-10-03T06:40:00;10.90;99.90
3380;DHT22;1703;51.964;7.642;2022-10-03T06:42:51;10.80;99.90
3380;DHT22;1703;51.964;7.642;2022-10-03T06:57:30;10.70;99.90
3380;DHT22;1703;51.964;7.642;2022-10-03T07:00:07;10.80;99.90
3380;DHT22;1703;51.964;7.642;2022-10-03T07:15:01;10.80;99.90
3380;DHT22;1703;51.964;7.642;2022-10-03T07:17:41;10.90;99.90
3380;DHT22;1703;51.964;7.642;2022-10-03T07:20:40;10.90;99.90
3380;DHT22;1703;51.964;7.642;2022-10-03T07:26:36;11.00;99.90
3380;DHT22;1703;51.964;7.642;2022-10-03T07:29:16;11.10;99.90
3380;DHT22;1703;51.964;7.642;2022-10-03T07:31:57;11.10;99.90
3380;DHT22;1703;51.964;7.642;2022-10-03T07:37:47;11.30;99.90
3380;DHT22;1703;51.964;7.642;2022-10-03T07:44:04;11.40;99.90
3380;DHT22;1703;51.964;7.642;2022-10-03T07:50:00;11.50;99.90
3380;DHT22;1703;51.964;7.642;2022-10-03T07:52:49;11.50;99.90
3380;DHT22;1703;51.964;7.642;2022-10-03T07:55:27;11.60;99.90
3380;DHT22;1703;51.964;7.642;2022-10-03T07:58:21;11.70;99.90
3380;DHT22;1703;51.964;7.642;2022-10-03T08:01:07;11.70;99.90
3380;DHT22;1703;51.964;7.642;2022-10-03T08:04:12;11.80;99.90
3380;DHT22;1703;51.964;7.642;2022-10-03T08:06:45;11.90;99.90
3380;DHT22;1703;51.964;7.642;2022-10-03T08:09:37;11.90;99.90
3380;DHT22;1703;51.964;7.642;2022-10-03T08:15:24;12.20;99.90
3380;DHT22;1703;51.964;7.642;2022-10-03T08:18:28;12.20;99.90
3380;DHT22;1703;51.964;7.642;2022-10-03T08:20:58;12.30;99.90
3380;DHT22;1703;51.964;7.642;2022-10-03T08:23:42;12.30;99.90
3380;DHT22;1703;51.964;7.642;2022-10-03T08:26:17;12.30;99.90
3380;DHT22;1703;51.964;7.642;2022-10-03T08:29:08;12.40;99.90
3380;DHT22;1703;51.964;7.642;2022-10-03T08:31:58;12.60;99.90
3380;DHT22;1703;51.964;7.642;2022-10-03T08:34:50;12.70;99.90
3380;DHT22;1703;51.964;7.642;2022-10-03T08:41:01;12.90;99.90
3380;DHT22;1703;51.964;7.642;2022-10-03T08:44:02;12.90;99.90
3380;DHT22;1703;51.964;7.642;2022-10-03T08:55:46;13.30;99.90
3380;DHT22;1703;51.964;7.642;2022-10-03T09:01:24;13.30;99.90
3380;DHT22;1703;51.964;7.642;2022-10-03T09:07:17;13.40;99.90
3380;DHT22;1703;51.964;7.642;2022-10-03T09:13:26;13.60;99.90
3380;DHT22;1703;51.964;7.642;2022-10-03T09:19:32;13.70;99.90
3380;DHT22;1703;51.964;7.642;2022-10-03T09:22:29;13.80;99.90
3380;DHT22;1703;51.964;7.642;2022-10-03T09:25:21;13.80;99.90
3380;DHT22;1703;51.964;7.642;2022-10-03T09:28:12;13.90;99.90
3380;DHT22;1703;51.964;7.642;2022-10-03T09:30:52;14.00;99.90
3380;DHT22;1703;51.964;7.642;2022-10-03T09:37:10;14.20;99.90
3380;DHT22;1703;51.964;7.642;2022-10-03T09:43:21;14.40;99.90
3380;DHT22;1703;51.964;7.642;2022-10-03T09:46:32;14.50;99.90
3380;DHT22;1703;51.964;7.642;2022-10-03T09:49:33;14.60;99.90
3380;DHT22;1703;51.964;7.642;2022-10-03T09:52:25;14.90;99.90
3380;DHT22;1703;51.964;7.642;2022-10-03T09:58:31;15.00;99.90
3380;DHT22;1703;51.964;7.642;2022-10-03T10:01:15;15.20;99.90
3380;DHT22;1703;51.964;7.642;2022-10-03T10:07:20;15.10;99.90
3380;DHT22;1703;51.964;7.642;2022-10-03T10:10:17;15.20;99.90
3380;DHT22;1703;51.964;7.642;2022-10-03T10:13:15;15.10;99.90
3380;DHT22;1703;51.964;7.642;2022-10-03T10:16:15;15.10;99.90
3380;DHT22;1703;51.964;7.642;2022-10-03T10:19:21;15.10;99.90
3380;DHT22;1703;51.964;7.642;2022-10-03T10:22:13;15.20;99.90
3380;DHT22;1703;51.964;7.642;2022-10-03T10:28:03;15.40;99.90
3380;DHT22;1703;51.964;7.642;2022-10-03T10:31:20;15.60;99.90
3380;DHT22;1703;51.964;7.642;2022-10-03T10:37:44;15.70;99.90
3380;DHT22;1703;51.964;7.642;2022-10-03T10:43:43;15.80;99.90
3380;DHT22;1703;51.964;7.642;2022-10-03T10:46:40;15.70;99.90
3380;DHT22;1703;51.964;7.642;2022-10-03T10:56:32;15.70;99.90
3380;DHT22;1703;51.964;7.642;2022-10-03T11:02:45;15.60;99.90
3380;DHT22;1703;51.964;7.642;2022-10-03T11:05:45;15.60;99.90
3380;DHT22;1703;51.964;7.642;2022-10-03T11:08:47;15.70;99.90
3380;DHT22;1703;51.964;7.642;2022-10-03T11:11:57;15.70;99.90
3380;DHT22;1703;51.964;7.642;2022-10-03T11:21:16;15.80;99.90
3380;DHT22;1703;51.964;7.642;2022-10-03T11:24:25;15.80;99.90
3380;DHT22;1703;51.964;7.642;2022-10-03T11:27:17;15.80;99.90
3380;DHT22;1703;51.964;7.642;2022-10-03T11:30:08;15.90;99.90
3380;DHT22;1703;51.964;7.642;2022-10-03T11:39:07;16.30;99.90
3380;DHT22;1703;51.964;7.642;2022-10-03T11:41:46;16.50;99.90
3380;DHT22;1703;51.964;7.642;2022-10-03T11:44:20;16.60;99.90
3380;DHT22;1703;51.964;7.642;2022-10-03T11:47:11;16.60;99.90
3380;DHT22;1703;51.964;7.642;2022-10-03T11:50:19;16.60;99.90
3380;DHT22;1703;51.964;7.642;2022-10-03T11:55:58;16.50;99.90
3380;DHT22;1703;51.964;7.642;2022-10-03T11:58:34;16.60;99.90
3380;DHT22;1703;51.964;7.642;2022-10-03T12:01:23;16.60;99.90
3380;DHT22;1703;51.964;7.642;2022-10-03T12:03:59;16.80;99.90
3380;DHT22;1703;51.964;7.642;2022-10-03T12:06:47;16.90;99.90
3380;DHT22;1703;51.964;7.642;2022-10-03T12:09:54;17.00;99.90
3380;DHT22;1703;51.964;7.642;2022-10-03T12:12:30;16.90;99.90
3380;DHT22;1703;51.964;7.642;2022-10-03T12:15:04;16.80;99.90
3380;DHT22;1703;51.964;7.642;2022-10-03T12:17:42;16.80;99.90
3380;DHT22;1703;51.964;7.642;2022-10-03T12:20:18;16.80;99.90
3380;DHT22;1703;51.964;7.642;2022-10-03T12:22:49;16.80;99.90
3380;DHT22;1703;51.964;7.642;2022-10-03T12:25:22;16.90;99.90
3380;DHT22;1703;51.964;7.642;2022-10-03T12:28:00;16.80;99.90
3380;DHT22;1703;51.964;7.642;2022-10-03T12:30:36;16.80;99.90
3380;DHT22;1703;51.964;7.642;2022-10-03T12:33:32;16.80;99.90
3380;DHT22;1703;51.964;7.642;2022-10-03T12:36:08;16.80;99.90
3380;DHT22;1703;51.964;7.642;2022-10-03T12:38:46;16.90;99.90
3380;DHT22;1703;51.964;7.642;2022-10-03T12:41:23;17.00;99.90
3380;DHT22;1703;51.964;7.642;2022-10-03T12:44:04;17.10;99.90
3380;DHT22;1703;51.964;7.642;2022-10-03T12:46:41;17.10;99.90
3380;DHT22;1703;51.964;7.642;2022-10-03T12:49:14;17.20;99.90
3380;DHT22;1703;51.964;7.642;2022-10-03T12:51:51;17.40;99.90
3380;DHT22;1703;51.964;7.642;2022-10-03T12:54:38;17.40;99.90
3380;DHT22;1703;51.964;7.642;2022-10-03T12:57:38;17.30;99.90
3380;DHT22;1703;51.964;7.642;2022-10-03T13:00:19;17.40;99.90
3380;DHT22;1703;51.964;7.642;2022-10-03T13:03:00;17.50;99.90
3380;DHT22;1703;51.964;7.642;2022-10-03T13:05:50;17.60;99.90
3380;DHT22;1703;51.964;7.642;2022-10-03T13:08:52;17.80;99.90
3380;DHT22;1703;51.964;7.642;2022-10-03T13:11:30;17.60;99.90
3380;DHT22;1703;51.964;7.642;2022-10-03T13:14:20;17.70;99.90
3380;DHT22;1703;51.964;7.642;2022-10-03T13:16:57;17.70;99.90
3380;DHT22;1703;51.964;7.642;2022-10-03T13:19:27;17.70;99.90
3380;DHT22;1703;51.964;7.642;2022-10-03T13:22:02;17.50;99.90
3380;DHT22;1703;51.964;7.642;2022-10-03T13:24:35;17.40;99.90
3380;DHT22;1703;51.964;7.642;2022-10-03T13:27:26;17.40;99.90
3380;DHT22;1703;51.964;7.642;2022-10-03T13:30:03;17.40;99.90
3380;DHT22;1703;51.964;7.642;2022-10-03T13:32:34;17.40;99.90
3380;DHT22;1703;51.964;7.642;2022-10-03T13:35:31;17.40;99.90
3380;DHT22;1703;51.964;7.642;2022-10-03T13:44:36;17.60;99.90
3380;DHT22;1703;51.964;7.642;2022-10-03T13:47:15;17.70;99.90
3380;DHT22;1703;51.964;7.642;2022-10-03T13:49:51;17.60;99.90
3380;DHT22;1703;51.964;7.642;2022-10-03T13:52:24;17.70;99.90
3380;DHT22;1703;51.964;7.642;2022-10-03T13:55:10;17.60;99.90
3380;DHT22;1703;51.964;7.642;2022-10-03T13:57:45;17.40;99.90
3380;DHT22;1703;51.964;7.642;2022-10-03T14:00:15;17.50;99.90
3380;DHT22;1703;51.964;7.642;2022-10-03T14:02:54;17.70;99.90
3380;DHT22;1703;51.964;7.642;2022-10-03T14:05:56;17.70;99.90
3380;DHT22;1703;51.964;7.642;2022-10-03T14:08:38;17.70;99.90
3380;DHT22;1703;51.964;7.642;2022-10-03T14:11:24;17.80;99.90
3380;DHT22;1703;51.964;7.642;2022-10-03T14:14:32;17.80;99.90
3380;DHT22;1703;51.964;7.642;2022-10-03T14:17:05;17.70;99.90
3380;DHT22;1703;51.964;7.642;2022-10-03T14:19:40;17.60;99.90
3380;DHT22;1703;51.964;7.642;2022-10-03T14:22:18;17.60;99.90
3380;DHT22;1703;51.964;7.642;2022-10-03T14:24:56;17.60;99.90
3380;DHT22;1703;51.964;7.642;2022-10-03T14:27:41;17.60;99.90
3380;DHT22;1703;51.964;7.642;2022-10-03T14:30:11;17.70;99.90
3380;DHT22;1703;51.964;7.642;2022-10-03T14:32:48;17.80;99.90
3380;DHT22;1703;51.964;7.642;2022-10-03T14:35:26;17.90;99.90
3380;DHT22;1703;51.964;7.642;2022-10-03T14:38:01;17.80;99.90
3380;DHT22;1703;51.964;7.642;2022-10-03T14:40:37;17.70;99.90
3380;DHT22;1703;51.964;7.642;2022-10-03T14:43:24;17.70;99.90
3380;DHT22;1703;51.964;7.642;2022-10-03T14:45:57;17.70;99.90
3380;DHT22;1703;51.964;7.642;2022-10-03T14:48:27;17.50;99.90
3380;DHT22;1703;51.964;7.642;2022-10-03T14:51:01;17.50;99.90
3380;DHT22;1703;51.964;7.642;2022-10-03T14:53:32;17.60;99.90
3380;DHT22;1703;51.964;7.642;2022-10-03T14:56:05;17.60;99.90
3380;DHT22;1703;51.964;7.642;2022-10-03T14:58:36;17.70;99.90
3380;DHT22;1703;51.964;7.642;2022-10-03T15:01:12;17.60;99.90
3380;DHT22;1703;51.964;7.642;2022-10-03T15:03:43;17.60;99.90
3380;DHT22;1703;51.964;7.642;2022-10-03T15:06:49;17.60;99.90
3380;DHT22;1703;51.964;7.642;2022-10-03T15:09:23;17.50;99.90
3380;DHT22;1703;51.964;7.642;2022-10-03T15:11:54;17.60;99.90
3380;DHT22;1703;51.964;7.642;2022-10-03T15:14:26;17.50;99.90
3380;DHT22;1703;51.964;7.642;2022-10-03T15:16:55;17.40;99.90
3380;DHT22;1703;51.964;7.642;2022-10-03T15:19:28;17.20;99.90
3380;DHT22;1703;51.964;7.642;2022-10-03T15:22:03;17.20;99.90
3380;DHT22;1703;51.964;7.642;2022-10-03T15:24:32;17.20;99.90
3380;DHT22;1703;51.964;7.642;2022-10-03T15:27:03;17.10;99.90
3380;DHT22;1703;51.964;7.642;2022-10-03T15:29:32;17.10;99.90
3380;DHT22;1703;51.964;7.642;2022-10-03T15:32:02;17.10;99.90
3380;DHT22;1703;51.964;7.642;2022-10-03T15:34:32;17.10;99.90
3380;DHT22;1703;51.964;7.642;2022-10-03T15:37:06;17.10;99.90
3380;DHT22;1703;51.964;7.642;2022-10-03T15:39:38;17.10;99.90
3380;DHT22;1703;51.964;7.642;2022-10-03T15:42:19;17.00;99.90
3380;DHT22;1703;51.964;7.642;2022-10-03T15:44:50;17.00;99.90
3380;DHT22;1703;51.964;7.642;2022-10-03T15:47:19;17.00;99.90
3380;DHT22;1703;51.964;7.642;2022-10-03T15:49:50;17.00;99.90
3380;DHT22;1703;51.964;7.642;2022-10-03T15:52:20;17.10;99.90
3380;DHT22;1703;51.964;7.642;2022-10-03T15:54:53;17.10;99.90
3380;DHT22;1703;51.964;7.642;2022-10-03T15:57:25;17.10;99.90
3380;DHT22;1703;51.964;7.642;2022-10-03T15:59:55;17.10;99.90
3380;DHT22;1703;51.964;7.642;2022-10-03T16:02:30;17.10;99.90
3380;DHT22;1703;51.964;7.642;2022-10-03T16:04:58;17.10;99.90
3380;DHT22;1703;51.964;7.642;2022-10-03T16:07:34;17.00;99.90
3380;DHT22;1703;51.964;7.642;2022-10-03T16:10:13;17.00;99.90
3380;DHT22;1703;51.964;7.642;2022-10-03T16:12:55;16.90;99.90
3380;DHT22;1703;51.964;7.642;2022-10-03T16:15:27;16.80;99.90
3380;DHT22;1703;51.964;7.642;2022-10-03T16:18:05;16.80;99.90
3380;DHT22;1703;51.964;7.642;2022-10-03T16:20:37;16.80;99.90
3380;DHT22;1703;51.964;7.642;2022-10-03T16:23:12;16.80;99.90
3380;DHT22;1703;51.964;7.642;2022-10-03T16:25:46;16.80;99.90
3380;DHT22;1703;51.964;7.642;2022-10-03T16:28:17;16.80;99.90
3380;DHT22;1703;51.964;7.642;2022-10-03T16:30:51;16.70;99.90
3380;DHT22;1703;51.964;7.642;2022-10-03T16:33:22;16.70;99.90
3380;DHT22;1703;51.964;7.642;2022-10-03T16:35:53;16.70;99.90
3380;DHT22;1703;51.964;7.642;2022-10-03T16:38:23;16.60;99.90
3380;DHT22;1703;51.964;7.642;2022-10-03T16:40:54;16.60;99.90
3380;DHT22;1703;51.964;7.642;2022-10-03T16:43:23;16.60;99.90
3380;DHT22;1703;51.964;7.642;2022-10-03T16:45:51;16.50;99.90
3380;DHT22;1703;51.964;7.642;2022-10-03T16:48:21;16.50;99.90
3380;DHT22;1703;51.964;7.642;2022-10-03T16:51:14;16.50;99.90
3380;DHT22;1703;51.964;7.642;2022-10-03T16:53:43;16.40;99.90
3380;DHT22;1703;51.964;7.642;2022-10-03T16:56:15;16.40;99.90
3380;DHT22;1703;51.964;7.642;2022-10-03T16:58:47;16.30;99.90
3380;DHT22;1703;51.964;7.642;2022-10-03T17:01:31;16.30;99.90
3380;DHT22;1703;51.964;7.642;2022-10-03T17:04:12;16.20;99.90
3380;DHT22;1703;51.964;7.642;2022-10-03T17:06:44;16.20;99.90
3380;DHT22;1703;51.964;7.642;2022-10-03T17:09:19;16.10;99.90
3380;DHT22;1703;51.964;7.642;2022-10-03T17:11:52;16.10;99.90
3380;DHT22;1703;51.964;7.642;2022-10-03T17:14:20;16.00;99.90
3380;DHT22;1703;51.964;7.642;2022-10-03T17:16:51;16.00;99.90
3380;DHT22;1703;51.964;7.642;2022-10-03T17:19:29;15.90;99.90
3380;DHT22;1703;51.964;7.642;2022-10-03T17:22:04;15.90;99.90
3380;DHT22;1703;51.964;7.642;2022-10-03T17:24:41;15.90;99.90
3380;DHT22;1703;51.964;7.642;2022-10-03T17:27:16;15.80;99.90
3380;DHT22;1703;51.964;7.642;2022-10-03T17:29:48;15.70;99.90
3380;DHT22;1703;51.964;7.642;2022-10-03T17:32:21;15.70;99.90
3380;DHT22;1703;51.964;7.642;2022-10-03T17:34:53;15.60;99.90
3380;DHT22;1703;51.964;7.642;2022-10-03T17:40:39;15.60;99.90
3380;DHT22;1703;51.964;7.642;2022-10-03T17:43:17;15.50;99.90
3380;DHT22;1703;51.964;7.642;2022-10-03T17:45:52;15.40;99.90
3380;DHT22;1703;51.964;7.642;2022-10-03T17:48:26;15.40;99.90
3380;DHT22;1703;51.964;7.642;2022-10-03T17:50:58;15.40;99.90
3380;DHT22;1703;51.964;7.642;2022-10-03T17:53:29;15.30;99.90
3380;DHT22;1703;51.964;7.642;2022-10-03T17:56:00;15.30;99.90
3380;DHT22;1703;51.964;7.642;2022-10-03T17:58:31;15.30;99.90
3380;DHT22;1703;51.964;7.642;2022-10-03T18:01:07;15.20;99.90
3380;DHT22;1703;51.964;7.642;2022-10-03T18:03:46;15.20;99.90
3380;DHT22;1703;51.964;7.642;2022-10-03T18:06:37;15.10;99.90
3380;DHT22;1703;51.964;7.642;2022-10-03T18:09:18;15.10;99.90
3380;DHT22;1703;51.964;7.642;2022-10-03T18:11:48;15.00;99.90
3380;DHT22;1703;51.964;7.642;2022-10-03T18:14:29;15.00;99.90
3380;DHT22;1703;51.964;7.642;2022-10-03T18:17:03;15.00;99.90
3380;DHT22;1703;51.964;7.642;2022-10-03T18:19:44;14.90;99.90
3380;DHT22;1703;51.964;7.642;2022-10-03T18:22:17;14.90;99.90
3380;DHT22;1703;51.964;7.642;2022-10-03T18:24:55;14.90;99.90
3380;DHT22;1703;51.964;7.642;2022-10-03T18:30:32;14.80;99.90
3380;DHT22;1703;51.964;7.642;2022-10-03T18:33:01;14.70;99.90
3380;DHT22;1703;51.964;7.642;2022-10-03T18:35:34;14.70;99.90
3380;DHT22;1703;51.964;7.642;2022-10-03T18:38:10;14.70;99.90
3380;DHT22;1703;51.964;7.642;2022-10-03T18:40:47;14.70;99.90
3380;DHT22;1703;51.964;7.642;2022-10-03T18:43:27;14.70;99.90
3380;DHT22;1703;51.964;7.642;2022-10-03T18:46:01;14.70;99.90
3380;DHT22;1703;51.964;7.642;2022-10-03T18:48:36;14.70;99.90
3380;DHT22;1703;51.964;7.642;2022-10-03T18:51:11;14.60;99.90
3380;DHT22;1703;51.964;7.642;2022-10-03T18:53:44;14.60;99.90
3380;DHT22;1703;51.964;7.642;2022-10-03T18:56:15;14.60;99.90
3380;DHT22;1703;51.964;7.642;2022-10-03T18:58:44;14.50;99.90
3380;DHT22;1703;51.964;7.642;2022-10-03T19:01:18;14.50;99.90
3380;DHT22;1703;51.964;7.642;2022-10-03T19:03:52;14.50;99.90
3380;DHT22;1703;51.964;7.642;2022-10-03T19:06:24;14.50;99.90
3380;DHT22;1703;51.964;7.642;2022-10-03T19:08:54;14.40;99.90
3380;DHT22;1703;51.964;7.642;2022-10-03T19:11:25;14.40;99.90
3380;DHT22;1703;51.964;7.642;2022-10-03T19:13:58;14.30;99.90
3380;DHT22;1703;51.964;7.642;2022-10-03T19:16:55;14.30;99.90
3380;DHT22;1703;51.964;7.642;2022-10-03T19:19:28;14.30;99.90
3380;DHT22;1703;51.964;7.642;2022-10-03T19:22:02;14.30;99.90
3380;DHT22;1703;51.964;7.642;2022-10-03T19:24:31;14.20;99.90
3380;DHT22;1703;51.964;7.642;2022-10-03T19:27:01;14.20;99.90
3380;DHT22;1703;51.964;7.642;2022-10-03T19:29:32;14.20;99.90
3380;DHT22;1703;51.964;7.642;2022-10-03T19:32:04;14.20;99.90
3380;DHT22;1703;51.964;7.642;2022-10-03T19:34:36;14.20;99.90
3380;DHT22;1703;51.964;7.642;2022-10-03T19:37:06;14.30;99.90
3380;DHT22;1703;51.964;7.642;2022-10-03T19:39:37;14.30;99.90
3380;DHT22;1703;51.964;7.642;2022-10-03T19:42:23;14.30;99.90
3380;DHT22;1703;51.964;7.642;2022-10-03T19:44:55;14.20;99.90
3380;DHT22;1703;51.964;7.642;2022-10-03T19:47:28;14.20;99.90
3380;DHT22;1703;51.964;7.642;2022-10-03T19:50:03;14.20;99.90
3380;DHT22;1703;51.964;7.642;2022-10-03T19:52:31;14.20;99.90
3380;DHT22;1703;51.964;7.642;2022-10-03T19:55:03;14.20;99.90
3380;DHT22;1703;51.964;7.642;2022-10-03T19:57:42;14.20;99.90
3380;DHT22;1703;51.964;7.642;2022-10-03T20:00:27;14.20;99.90
3380;DHT22;1703;51.964;7.642;2022-10-03T20:03:03;14.30;99.90
3380;DHT22;1703;51.964;7.642;2022-10-03T20:05:36;14.40;99.90
3380;DHT22;1703;51.964;7.642;2022-10-03T20:08:15;14.40;99.90
3380;DHT22;1703;51.964;7.642;2022-10-03T20:10:54;14.30;99.90
3380;DHT22;1703;51.964;7.642;2022-10-03T20:13:29;14.30;99.90
3380;DHT22;1703;51.964;7.642;2022-10-03T20:15:56;14.30;99.90
3380;DHT22;1703;51.964;7.642;2022-10-03T20:18:29;14.30;99.90
3380;DHT22;1703;51.964;7.642;2022-10-03T20:20:59;14.30;99.90
3380;DHT22;1703;51.964;7.642;2022-10-03T20:23:30;14.30;99.90
3380;DHT22;1703;51.964;7.642;2022-10-03T20:26:00;14.30;99.90
3380;DHT22;1703;51.964;7.642;2022-10-03T20:28:44;14.30;99.90
3380;DHT22;1703;51.964;7.642;2022-10-03T20:31:19;14.30;99.90
3380;DHT22;1703;51.964;7.642;2022-10-03T20:33:49;14.30;99.90
3380;DHT22;1703;51.964;7.642;2022-10-03T20:36:20;14.30;99.90
3380;DHT22;1703;51.964;7.642;2022-10-03T20:39:01;14.20;99.90